Time;durP1;ratioP1;P1;durP2;ratioP2;P2;SDS_P1;SDS_P2;PMS_P1;PMS_P2;Temp;Humidity;BMP_temperature;BMP_pressure;BME280_temperature;BME280_humidity;BME280_pressure;Samples;Min_cycle;Max_cycle;Signal;HPM_P1;HPM_P2
2022/07/18 00:02:00;;;;;;;9.82;6.85;;;18.40;99.90;;;;;;5035115;28;20046;-66
2022/07/18 00:04:26;;;;;;;10.77;5.72;;;18.30;99.90;;;;;;5035002;28;20041;-65
2022/07/18 00:06:52;;;;;;;9.50;6.07;;;18.40;99.90;;;;;;5034260;28;21816;-66
2022/07/18 00:09:19;;;;;;;8.95;5.82;;;18.40;99.90;;;;;;5034884;28;20041;-65
2022/07/18 00:11:45;;;;;;;7.13;6.05;;;18.30;99.90;;;;;;5034597;28;20464;-65
2022/07/18 00:14:11;;;;;;;8.93;6.03;;;18.30;99.90;;;;;;5034620;28;20578;-67
2022/07/18 00:16:37;;;;;;;10.80;5.72;;;18.30;99.90;;;;;;5035084;28;20080;-65
2022/07/18 00:19:03;;;;;;;10.75;6.20;;;18.30;99.90;;;;;;5034921;28;20127;-67
2022/07/18 00:21:29;;;;;;;8.13;6.10;;;18.30;99.90;;;;;;5034391;28;20038;-65
2022/07/18 00:23:54;;;;;;;8.07;6.13;;;18.30;99.90;;;;;;5034739;28;20464;-66
2022/07/18 00:26:20;;;;;;;10.80;6.75;;;18.30;99.90;;;;;;5034582;28;20054;-66
2022/07/18 00:28:45;;;;;;;11.45;6.65;;;18.30;99.90;;;;;;5033828;28;20045;-67
2022/07/18 00:31:11;;;;;;;7.97;5.60;;;18.30;99.90;;;;;;5034836;28;20041;-64
2022/07/18 00:33:37;;;;;;;10.60;6.30;;;18.30;99.90;;;;;;5035002;28;20095;-67
2022/07/18 00:36:03;;;;;;;8.98;5.95;;;18.20;99.90;;;;;;5016680;28;20045;-65
2022/07/18 00:38:28;;;;;;;8.02;5.70;;;18.30;99.90;;;;;;5034685;28;20045;-65
2022/07/18 00:40:54;;;;;;;7.88;5.82;;;18.20;99.90;;;;;;5034659;28;20349;-65
2022/07/18 00:43:19;;;;;;;8.80;6.38;;;18.30;99.90;;;;;;5034720;28;20049;-65
2022/07/18 00:45:46;;;;;;;9.27;6.30;;;18.20;99.90;;;;;;5034763;28;20038;-67
2022/07/18 00:48:13;;;;;;;9.02;6.63;;;18.20;99.90;;;;;;5034156;28;20364;-66
2022/07/18 00:50:39;;;;;;;8.05;6.47;;;18.20;99.90;;;;;;5033746;28;20403;-64
2022/07/18 00:53:05;;;;;;;8.40;6.25;;;18.10;99.90;;;;;;5033813;28;20083;-65
2022/07/18 00:55:31;;;;;;;10.02;6.50;;;18.10;99.90;;;;;;5034423;28;20053;-64
2022/07/18 00:57:58;;;;;;;7.63;6.40;;;18.20;99.90;;;;;;5034501;28;20192;-65
2022/07/18 01:03:09;;;;;;;8.88;6.05;;;18.20;99.90;;;;;;5037390;28;20045;-66
2022/07/18 01:05:34;;;;;;;8.20;6.25;;;18.10;99.90;;;;;;5037576;28;20052;-67
2022/07/18 01:08:00;;;;;;;7.13;5.72;;;18.00;99.90;;;;;;5004373;28;20077;-66
2022/07/18 01:10:26;;;;;;;8.55;6.47;;;18.10;99.90;;;;;;5038043;28;20371;-65
2022/07/18 01:12:52;;;;;;;11.00;6.65;;;18.00;99.90;;;;;;5038086;28;20084;-65
2022/07/18 01:15:18;;;;;;;9.90;6.68;;;18.10;99.90;;;;;;5037957;28;20332;-65
2022/07/18 01:17:43;;;;;;;7.72;6.38;;;18.10;99.90;;;;;;5038125;28;20045;-66
2022/07/18 01:20:10;;;;;;;10.43;7.20;;;18.10;99.90;;;;;;5037297;28;20103;-67
2022/07/18 01:22:35;;;;;;;13.30;7.13;;;18.10;99.90;;;;;;5037436;28;20470;-65
2022/07/18 01:25:01;;;;;;;9.68;6.57;;;18.10;99.90;;;;;;5037731;28;20136;-64
2022/07/18 01:27:27;;;;;;;8.82;6.22;;;18.10;99.90;;;;;;5037543;28;20525;-66
2022/07/18 01:29:53;;;;;;;8.32;6.45;;;18.00;99.90;;;;;;5038083;28;20111;-66
2022/07/18 01:32:19;;;;;;;7.50;6.65;;;18.10;99.90;;;;;;5004209;28;20057;-65
2022/07/18 01:34:47;;;;;;;7.82;5.93;;;18.10;99.90;;;;;;5018732;28;20444;-65
2022/07/18 01:37:13;;;;;;;9.00;5.82;;;18.00;99.90;;;;;;5037059;28;20539;-65
2022/07/18 01:39:39;;;;;;;7.70;5.93;;;18.00;99.90;;;;;;5037556;28;20128;-65
2022/07/18 01:42:10;;;;;;;8.23;6.05;;;18.00;99.90;;;;;;5037562;28;20110;-64
2022/07/18 01:44:37;;;;;;;10.68;6.25;;;18.00;99.90;;;;;;5037676;28;20132;-69
2022/07/18 01:47:05;;;;;;;11.00;6.10;;;17.90;99.90;;;;;;5036423;28;20116;-68
2022/07/18 01:49:30;;;;;;;9.73;6.07;;;17.90;99.90;;;;;;5037449;28;20120;-67
2022/07/18 01:51:57;;;;;;;10.18;6.55;;;17.90;99.90;;;;;;5035464;28;20183;-67
2022/07/18 01:54:26;;;;;;;9.77;6.85;;;17.90;99.90;;;;;;5037423;28;20132;-66
2022/07/18 01:56:51;;;;;;;9.45;6.50;;;17.90;99.90;;;;;;5036432;28;20045;-66
2022/07/18 01:59:18;;;;;;;10.18;6.72;;;17.80;99.90;;;;;;5037381;28;20052;-66
2022/07/18 02:01:44;;;;;;;10.52;7.00;;;17.80;99.90;;;;;;5037246;28;20037;-69
2022/07/18 02:04:10;;;;;;;11.43;7.68;;;17.70;99.90;;;;;;5037092;28;20041;-69
2022/07/18 02:06:35;;;;;;;10.65;7.60;;;17.70;99.90;;;;;;5037108;28;20119;-68
2022/07/18 02:09:01;;;;;;;11.73;7.38;;;17.70;99.90;;;;;;5037223;28;20439;-67
2022/07/18 02:11:27;;;;;;;9.70;7.30;;;17.70;99.90;;;;;;5037200;28;20049;-67
2022/07/18 02:13:52;;;;;;;11.73;7.47;;;17.70;99.90;;;;;;5036127;28;20452;-68
2022/07/18 02:16:18;;;;;;;12.40;8.20;;;17.70;99.90;;;;;;5037031;28;20080;-67
2022/07/18 02:18:44;;;;;;;14.05;8.02;;;17.70;99.90;;;;;;5037061;28;20123;-64
2022/07/18 02:21:10;;;;;;;13.95;7.93;;;17.70;99.90;;;;;;5036727;28;20088;-66
2022/07/18 02:23:36;;;;;;;10.25;6.82;;;17.70;99.90;;;;;;5036717;28;20053;-64
2022/07/18 02:26:01;;;;;;;10.80;7.28;;;17.70;99.90;;;;;;5035877;28;20062;-65
2022/07/18 02:28:27;;;;;;;9.23;7.55;;;17.70;99.90;;;;;;5036706;28;20056;-66
2022/07/18 02:30:53;;;;;;;14.10;8.27;;;17.70;99.90;;;;;;5036955;28;20110;-64
2022/07/18 02:33:19;;;;;;;13.27;8.07;;;17.60;99.90;;;;;;5018868;28;20057;-65
2022/07/18 02:35:45;;;;;;;10.00;7.30;;;17.70;99.90;;;;;;5036123;28;20452;-67
2022/07/18 02:38:10;;;;;;;9.77;7.25;;;17.60;99.90;;;;;;5036396;28;20063;-65
2022/07/18 02:40:36;;;;;;;12.95;8.23;;;17.60;99.90;;;;;;5035875;28;20471;-66
2022/07/18 02:43:03;;;;;;;9.57;7.55;;;17.70;99.90;;;;;;5036328;28;20064;-65
2022/07/18 02:45:28;;;;;;;11.73;7.75;;;17.60;99.90;;;;;;5036435;28;20045;-65
2022/07/18 02:47:54;;;;;;;10.07;7.72;;;17.60;99.90;;;;;;5036209;28;20067;-65
2022/07/18 02:50:20;;;;;;;10.82;8.27;;;17.60;99.90;;;;;;5035833;28;20077;-66
2022/07/18 02:52:46;;;;;;;9.85;8.05;;;17.60;99.90;;;;;;5036448;28;20041;-65
2022/07/18 02:55:13;;;;;;;10.60;7.80;;;17.60;99.90;;;;;;5035590;28;20095;-66
2022/07/18 02:57:40;;;;;;;11.27;8.68;;;17.70;99.90;;;;;;5036178;28;20088;-65
2022/07/18 03:00:09;;;;;;;14.70;8.55;;;17.60;99.90;;;;;;5018756;28;20532;-64
2022/07/18 03:02:35;;;;;;;12.10;8.60;;;17.60;99.90;;;;;;5035800;28;20423;-65
2022/07/18 03:05:01;;;;;;;12.90;8.95;;;17.60;99.90;;;;;;5035927;28;20041;-65
2022/07/18 03:07:27;;;;;;;10.60;8.77;;;17.60;99.90;;;;;;5035835;28;20410;-64
2022/07/18 03:09:53;;;;;;;11.48;8.52;;;17.50;99.90;;;;;;5035271;28;20038;-66
2022/07/18 03:12:19;;;;;;;12.13;8.52;;;17.60;99.90;;;;;;5036037;28;20045;-64
2022/07/18 03:14:44;;;;;;;13.02;8.85;;;17.50;99.90;;;;;;5035886;28;20095;-64
2022/07/18 03:17:10;;;;;;;11.48;8.38;;;17.50;99.90;;;;;;5035680;28;20048;-65
2022/07/18 03:19:37;;;;;;;11.93;8.70;;;17.50;99.90;;;;;;5035370;28;20042;-66
2022/07/18 03:22:03;;;;;;;11.77;8.55;;;17.50;99.90;;;;;;5035619;28;20049;-64
2022/07/18 03:24:29;;;;;;;10.25;7.82;;;17.50;99.90;;;;;;5034223;28;20064;-65
2022/07/18 03:26:56;;;;;;;12.30;9.07;;;17.40;99.90;;;;;;5035439;28;20057;-64
2022/07/18 03:29:21;;;;;;;12.70;8.30;;;17.40;99.90;;;;;;5035738;28;20064;-64
2022/07/18 03:31:47;;;;;;;13.23;8.50;;;17.40;99.90;;;;;;5017970;28;20054;-66
2022/07/18 03:34:13;;;;;;;13.80;8.10;;;17.50;99.90;;;;;;5035552;28;20049;-64
2022/07/18 03:36:39;;;;;;;11.68;8.40;;;17.50;99.90;;;;;;5035436;28;20073;-66
2022/07/18 03:39:06;;;;;;;13.13;8.23;;;17.50;99.90;;;;;;5034783;28;20096;-66
2022/07/18 03:41:31;;;;;;;10.23;7.75;;;17.40;99.90;;;;;;5017860;28;20034;-65
2022/07/18 03:43:57;;;;;;;10.52;7.82;;;17.40;99.90;;;;;;5035491;28;20126;-64
2022/07/18 03:46:23;;;;;;;11.27;8.20;;;17.40;99.90;;;;;;5035217;28;20418;-69
2022/07/18 03:48:49;;;;;;;10.77;8.02;;;17.40;99.90;;;;;;5035484;28;20041;-69
2022/07/18 03:51:14;;;;;;;10.63;7.82;;;17.40;99.90;;;;;;5035220;28;20061;-69
2022/07/18 03:53:40;;;;;;;9.98;7.32;;;17.40;99.90;;;;;;5034388;28;20436;-68
2022/07/18 03:56:06;;;;;;;11.75;8.13;;;17.40;99.90;;;;;;5035024;28;20466;-69
2022/07/18 03:58:32;;;;;;;10.20;8.35;;;17.40;99.90;;;;;;5035136;28;20143;-68
2022/07/18 04:00:57;;;;;;;12.75;8.70;;;17.40;99.90;;;;;;5035016;28;20074;-66
2022/07/18 04:03:23;;;;;;;10.95;7.43;;;17.40;99.90;;;;;;5017883;28;20059;-66
2022/07/18 04:05:49;;;;;;;12.50;8.13;;;17.40;99.90;;;;;;5034986;28;20088;-66
2022/07/18 04:08:15;;;;;;;12.85;8.70;;;17.40;99.90;;;;;;5034392;28;20341;-64
2022/07/18 04:10:43;;;;;;;9.23;7.38;;;17.40;99.90;;;;;;5034347;28;20359;-64
2022/07/18 04:13:08;;;;;;;12.93;8.13;;;17.50;99.90;;;;;;5029445;28;20118;-66
2022/07/18 04:15:35;;;;;;;12.63;7.95;;;17.50;99.90;;;;;;5017442;28;20141;-65
2022/07/18 04:18:00;;;;;;;12.55;8.07;;;17.50;99.90;;;;;;5034869;28;20056;-65
2022/07/18 04:20:26;;;;;;;10.18;7.63;;;17.50;99.90;;;;;;5017279;28;20045;-65
2022/07/18 04:22:56;;;;;;;11.30;8.38;;;17.50;99.90;;;;;;5033569;28;20150;-66
2022/07/18 04:25:24;;;;;;;13.70;8.25;;;17.50;99.90;;;;;;5034850;28;20123;-66
2022/07/18 04:27:50;;;;;;;10.07;7.38;;;17.50;99.90;;;;;;5034721;28;20060;-65
2022/07/18 04:30:17;;;;;;;11.15;7.60;;;17.60;99.90;;;;;;5034663;28;20440;-64
2022/07/18 04:32:43;;;;;;;11.48;8.27;;;17.50;99.90;;;;;;5034819;28;20060;-66
2022/07/18 04:35:09;;;;;;;10.88;7.78;;;17.60;99.90;;;;;;5034840;28;20049;-65
2022/07/18 04:37:35;;;;;;;10.48;8.20;;;17.60;99.90;;;;;;5038101;28;20431;-65
2022/07/18 04:40:01;;;;;;;13.52;8.48;;;17.50;99.90;;;;;;5038677;28;20133;-64
2022/07/18 04:42:27;;;;;;;13.70;8.98;;;17.60;99.90;;;;;;5038836;28;20128;-66
2022/07/18 04:44:53;;;;;;;11.60;7.93;;;17.60;99.90;;;;;;5020971;28;20099;-65
2022/07/18 04:47:19;;;;;;;12.20;7.90;;;17.60;99.90;;;;;;5021349;28;20081;-66
2022/07/18 04:49:44;;;;;;;11.93;8.05;;;17.70;99.90;;;;;;5037711;28;20049;-64
2022/07/18 04:52:10;;;;;;;10.07;7.57;;;17.70;99.90;;;;;;5019553;28;20064;-64
2022/07/18 04:54:36;;;;;;;13.68;7.88;;;17.70;99.90;;;;;;5018747;28;20045;-65
2022/07/18 04:57:01;;;;;;;10.50;7.53;;;17.70;99.90;;;;;;5018792;28;20037;-64
2022/07/18 04:59:27;;;;;;;12.18;7.63;;;17.80;99.90;;;;;;5017856;28;20115;-65
2022/07/18 05:01:52;;;;;;;12.35;7.43;;;17.80;99.90;;;;;;5033044;28;20049;-66
2022/07/18 05:04:18;;;;;;;13.82;8.15;;;17.90;99.90;;;;;;5038115;28;20053;-66
2022/07/18 05:06:44;;;;;;;11.02;7.03;;;17.90;99.90;;;;;;5038296;28;20139;-66
2022/07/18 05:09:09;;;;;;;10.15;6.60;;;17.90;99.90;;;;;;5037050;28;20428;-65
2022/07/18 05:11:35;;;;;;;9.85;7.43;;;17.90;99.90;;;;;;5020897;28;20476;-67
2022/07/18 05:14:01;;;;;;;10.15;7.20;;;17.90;99.90;;;;;;5036235;28;20044;-67
2022/07/18 05:16:26;;;;;;;9.30;6.55;;;18.00;99.90;;;;;;5020811;28;20133;-65
2022/07/18 05:18:52;;;;;;;11.57;7.05;;;18.00;99.90;;;;;;5037930;28;20037;-66
2022/07/18 05:21:17;;;;;;;11.00;6.68;;;18.00;99.90;;;;;;5038121;28;20061;-65
2022/07/18 05:23:45;;;;;;;9.88;6.65;;;18.00;99.90;;;;;;5037899;28;20044;-65
2022/07/18 05:26:11;;;;;;;11.80;6.70;;;18.00;99.90;;;;;;5037960;28;20063;-66
2022/07/18 05:28:37;;;;;;;12.68;6.97;;;18.10;99.90;;;;;;5037100;28;20049;-66
2022/07/18 05:31:02;;;;;;;10.77;6.68;;;18.10;99.90;;;;;;5037687;28;20033;-66
2022/07/18 05:33:28;;;;;;;11.88;7.38;;;18.10;99.90;;;;;;5037674;28;20076;-66
2022/07/18 05:35:53;;;;;;;10.55;6.78;;;18.10;99.90;;;;;;5037833;28;20057;-65
2022/07/18 05:38:19;;;;;;;10.85;6.78;;;18.10;99.90;;;;;;5037119;28;20061;-66
2022/07/18 05:40:44;;;;;;;11.25;6.68;;;18.20;99.90;;;;;;5037517;28;20104;-66
2022/07/18 05:43:10;;;;;;;10.50;7.32;;;18.20;99.90;;;;;;5037426;28;20045;-65
2022/07/18 05:45:36;;;;;;;9.23;6.72;;;18.20;99.90;;;;;;5037288;28;20486;-66
2022/07/18 05:48:02;;;;;;;10.88;7.03;;;18.20;99.90;;;;;;5036799;28;20052;-66
2022/07/18 05:50:28;;;;;;;13.18;7.07;;;18.30;99.90;;;;;;5037432;28;20444;-66
2022/07/18 05:52:53;;;;;;;10.00;6.85;;;18.30;99.90;;;;;;5036962;28;20447;-65
2022/07/18 05:55:19;;;;;;;15.65;7.15;;;18.40;99.90;;;;;;5035074;28;20042;-64
2022/07/18 05:57:45;;;;;;;11.23;6.68;;;18.40;99.90;;;;;;5037246;28;20049;-65
2022/07/18 06:00:12;;;;;;;14.20;6.72;;;18.40;99.90;;;;;;5004260;28;20061;-67
2022/07/18 06:02:38;;;;;;;16.02;6.93;;;18.50;99.90;;;;;;5036837;28;20396;-64
2022/07/18 06:05:06;;;;;;;9.45;6.40;;;18.50;99.90;;;;;;5036949;28;20095;-67
2022/07/18 06:07:31;;;;;;;15.75;7.50;;;18.50;99.90;;;;;;5036454;28;20583;-67
2022/07/18 06:09:57;;;;;;;14.15;6.72;;;18.50;99.90;;;;;;5037104;28;20047;-65
2022/07/18 06:12:23;;;;;;;14.23;6.88;;;18.50;99.90;;;;;;5036967;28;20077;-66
2022/07/18 06:14:48;;;;;;;17.17;6.93;;;18.60;99.90;;;;;;5036808;28;20065;-65
2022/07/18 06:17:14;;;;;;;13.80;7.10;;;18.60;99.90;;;;;;5037170;28;20068;-64
2022/07/18 06:19:41;;;;;;;17.90;7.30;;;18.70;99.90;;;;;;5036968;28;20475;-66
2022/07/18 06:22:07;;;;;;;11.25;7.28;;;18.70;99.90;;;;;;5018708;28;20069;-67
2022/07/18 06:24:32;;;;;;;11.65;6.97;;;18.70;99.90;;;;;;5036755;28;20045;-65
2022/07/18 06:26:58;;;;;;;12.63;6.95;;;18.80;99.90;;;;;;5036504;28;20136;-64
2022/07/18 06:29:24;;;;;;;14.15;6.45;;;18.90;99.90;;;;;;5036837;28;20046;-65
2022/07/18 06:31:49;;;;;;;14.68;6.75;;;19.00;99.90;;;;;;5036687;28;20344;-65
2022/07/18 06:34:15;;;;;;;11.50;7.15;;;19.10;99.90;;;;;;5036853;28;20054;-67
2022/07/18 06:36:40;;;;;;;11.18;6.78;;;19.10;99.90;;;;;;5035888;28;20073;-66
2022/07/18 06:39:10;;;;;;;10.35;7.90;;;19.10;99.90;;;;;;5036460;28;20053;-66
2022/07/18 06:41:37;;;;;;;9.15;6.80;;;19.30;99.90;;;;;;5036475;28;20103;-66
2022/07/18 06:44:03;;;;;;;11.75;6.40;;;19.30;99.90;;;;;;5036166;28;20049;-67
2022/07/18 06:46:29;;;;;;;14.80;5.68;;;19.30;99.90;;;;;;5019299;28;20049;-65
2022/07/18 06:48:55;;;;;;;10.68;6.25;;;19.40;99.90;;;;;;5036473;28;20049;-65
2022/07/18 06:51:20;;;;;;;12.02;6.65;;;19.40;99.90;;;;;;5035711;28;20460;-66
2022/07/18 06:53:46;;;;;;;11.60;6.07;;;19.50;99.90;;;;;;5036268;28;20045;-68
2022/07/18 06:56:11;;;;;;;10.38;6.15;;;19.50;99.90;;;;;;5036065;28;20409;-68
2022/07/18 06:58:37;;;;;;;11.27;6.00;;;19.60;99.90;;;;;;5035764;28;20041;-69
2022/07/18 07:01:03;;;;;;;10.68;6.22;;;19.70;99.90;;;;;;5035351;28;20095;-68
2022/07/18 07:03:28;;;;;;;10.70;6.07;;;19.70;99.90;;;;;;5035925;28;20041;-67
2022/07/18 07:05:54;;;;;;;11.38;6.20;;;19.90;99.90;;;;;;5035330;28;20375;-67
2022/07/18 07:08:20;;;;;;;9.73;5.88;;;20.00;99.90;;;;;;5036008;28;20120;-66
2022/07/18 07:10:45;;;;;;;9.25;6.18;;;20.10;99.90;;;;;;5035864;28;20049;-66
2022/07/18 07:13:11;;;;;;;8.00;5.65;;;20.10;99.90;;;;;;5035744;28;20053;-67
2022/07/18 07:15:36;;;;;;;9.23;5.82;;;20.10;99.90;;;;;;5034779;28;20047;-65
2022/07/18 07:18:02;;;;;;;9.38;5.60;;;20.20;99.90;;;;;;5034825;28;20033;-67
2022/07/18 07:20:28;;;;;;;8.80;5.60;;;20.20;99.90;;;;;;5035660;28;20486;-65
2022/07/18 07:22:56;;;;;;;15.32;5.97;;;20.30;99.90;;;;;;5035612;28;20439;-64
2022/07/18 07:25:24;;;;;;;9.65;5.75;;;20.40;99.90;;;;;;5035238;28;20065;-65
2022/07/18 07:27:50;;;;;;;10.95;5.82;;;20.50;99.90;;;;;;5035633;28;20134;-65
2022/07/18 07:30:16;;;;;;;8.40;5.63;;;20.60;99.90;;;;;;5035093;28;20144;-65
2022/07/18 07:32:44;;;;;;;8.52;5.60;;;20.70;99.90;;;;;;5035302;28;20527;-65
2022/07/18 07:35:12;;;;;;;9.05;5.82;;;20.70;99.90;;;;;;5017939;28;20128;-67
2022/07/18 07:37:52;;;;;;;7.40;5.32;;;20.80;99.90;;;;;;5035434;28;20353;-66
2022/07/18 07:40:18;;;;;;;11.13;5.50;;;21.00;99.90;;;;;;5035253;28;20068;-66
2022/07/18 07:42:44;;;;;;;8.75;5.15;;;21.10;99.90;;;;;;5035323;28;20045;-67
2022/07/18 07:45:11;;;;;;;9.60;5.35;;;21.20;99.90;;;;;;5033991;28;20190;-65
2022/07/18 07:47:37;;;;;;;8.65;5.43;;;21.30;99.90;;;;;;5035308;28;20114;-66
2022/07/18 07:50:05;;;;;;;8.02;5.05;;;21.40;99.90;;;;;;5035271;28;20120;-67
2022/07/18 07:52:31;;;;;;;12.65;5.78;;;21.50;99.90;;;;;;5035218;28;20140;-67
2022/07/18 07:54:57;;;;;;;8.55;5.32;;;21.60;99.90;;;;;;5032833;28;20100;-66
2022/07/18 07:57:23;;;;;;;9.18;5.53;;;21.70;99.90;;;;;;5035060;28;20372;-65
2022/07/18 07:59:49;;;;;;;9.43;5.40;;;21.80;99.90;;;;;;5035175;28;20049;-67
2022/07/18 08:02:16;;;;;;;8.55;5.20;;;21.90;99.90;;;;;;5035233;28;20048;-66
2022/07/18 08:04:42;;;;;;;9.68;5.32;;;22.00;99.90;;;;;;5034483;28;20037;-67
2022/07/18 08:07:08;;;;;;;8.35;5.10;;;22.00;99.90;;;;;;5034964;28;20414;-68
2022/07/18 08:09:34;;;;;;;7.13;4.43;;;22.20;99.90;;;;;;5034268;28;20064;-67
2022/07/18 08:11:59;;;;;;;9.82;4.95;;;22.20;99.90;;;;;;5034713;28;20042;-65
2022/07/18 08:14:25;;;;;;;11.07;4.88;;;22.30;99.90;;;;;;5034865;28;20111;-66
2022/07/18 08:16:50;;;;;;;7.47;4.78;;;22.40;99.90;;;;;;5034625;28;20045;-68
2022/07/18 08:19:16;;;;;;;11.73;4.57;;;22.60;99.90;;;;;;5033599;28;20059;-66
2022/07/18 08:21:42;;;;;;;9.45;4.90;;;22.70;99.90;;;;;;5033883;28;20046;-68
2022/07/18 08:24:07;;;;;;;10.68;4.47;;;22.70;99.90;;;;;;5034708;28;20056;-68
2022/07/18 08:26:35;;;;;;;13.75;4.40;;;22.80;99.90;;;;;;5034664;28;20053;-68
2022/07/18 08:29:02;;;;;;;9.02;4.30;;;22.90;99.90;;;;;;5034668;28;20092;-68
2022/07/18 08:31:28;;;;;;;8.23;4.65;;;23.00;99.90;;;;;;5034730;28;20095;-68
2022/07/18 08:33:53;;;;;;;9.32;4.50;;;23.20;99.90;;;;;;5000954;28;20049;-69
2022/07/18 08:36:20;;;;;;;11.55;5.03;;;23.20;99.90;;;;;;5033977;28;20080;-69
2022/07/18 08:38:46;;;;;;;8.82;4.18;;;23.30;99.90;;;;;;5034684;28;20475;-67
2022/07/18 08:41:12;;;;;;;11.98;4.35;;;23.40;99.90;;;;;;5034689;28;20124;-69
2022/07/18 08:43:38;;;;;;;8.73;3.67;;;23.50;99.90;;;;;;5034893;28;20056;-66
2022/07/18 08:46:05;;;;;;;6.57;4.10;;;23.60;99.90;;;;;;5034712;28;20045;-69
2022/07/18 08:48:32;;;;;;;12.35;4.07;;;23.70;99.90;;;;;;5034524;28;20042;-67
2022/07/18 08:51:00;;;;;;;9.13;4.07;;;23.80;99.90;;;;;;5016296;28;20427;-69
2022/07/18 08:53:26;;;;;;;11.45;4.50;;;24.00;99.90;;;;;;5034519;28;20107;-67
2022/07/18 08:55:52;;;;;;;6.97;4.00;;;24.10;99.90;;;;;;5034787;28;20439;-68
2022/07/18 08:58:18;;;;;;;7.25;3.63;;;24.10;99.90;;;;;;5034519;28;20060;-67
2022/07/18 09:00:45;;;;;;;24.00;4.53;;;24.20;99.90;;;;;;5034575;28;20132;-66
2022/07/18 09:03:11;;;;;;;8.77;3.90;;;24.30;99.70;;;;;;5034289;28;20045;-69
2022/07/18 09:05:37;;;;;;;9.23;3.85;;;24.40;99.50;;;;;;5033843;28;20033;-67
2022/07/18 09:08:09;;;;;;;10.05;3.92;;;24.40;98.50;;;;;;5034596;28;20129;-68
2022/07/18 09:10:50;;;;;;;11.63;3.85;;;24.40;97.90;;;;;;5017176;28;20053;-70
2022/07/18 09:13:16;;;;;;;11.23;4.25;;;24.50;98.10;;;;;;5034498;28;20056;-69
2022/07/18 09:16:02;;;;;;;6.57;3.42;;;24.70;98.70;;;;;;5033717;28;20037;-67
2022/07/18 09:18:37;;;;;;;8.65;3.75;;;24.80;98.40;;;;;;5033653;28;20054;-68
2022/07/18 09:21:12;;;;;;;11.35;3.97;;;24.90;98.10;;;;;;5033660;28;20045;-67
2022/07/18 09:23:44;;;;;;;9.27;4.07;;;24.90;97.80;;;;;;5036462;28;20125;-68
2022/07/18 09:26:10;;;;;;;6.65;3.92;;;24.80;98.00;;;;;;5037745;28;20487;-68
2022/07/18 09:28:51;;;;;;;10.10;3.60;;;24.90;98.40;;;;;;5037093;28;20132;-69
2022/07/18 09:31:21;;;;;;;8.23;3.95;;;25.00;98.20;;;;;;5037787;28;20045;-67
2022/07/18 09:33:58;;;;;;;7.32;4.20;;;25.10;98.50;;;;;;5037141;28;20436;-67
2022/07/18 09:36:23;;;;;;;8.00;3.33;;;25.20;97.90;;;;;;5037849;28;20471;-67
2022/07/18 09:38:49;;;;;;;9.55;3.50;;;25.20;98.00;;;;;;5037677;28;20195;-67
2022/07/18 09:41:15;;;;;;;6.93;3.20;;;25.30;97.60;;;;;;5037577;28;20050;-68
2022/07/18 09:43:41;;;;;;;7.50;3.28;;;25.30;97.60;;;;;;5037731;28;20356;-67
2022/07/18 09:46:07;;;;;;;7.03;3.85;;;25.40;97.20;;;;;;5036558;28;20041;-69
2022/07/18 09:48:34;;;;;;;7.00;3.10;;;25.40;97.20;;;;;;5019979;28;20056;-69
2022/07/18 09:51:07;;;;;;;5.75;3.17;;;25.30;96.80;;;;;;5019785;28;20451;-70
2022/07/18 09:53:43;;;;;;;7.22;3.63;;;25.30;96.80;;;;;;5019889;28;20447;-68
2022/07/18 09:56:29;;;;;;;8.57;3.15;;;25.30;96.70;;;;;;5037140;28;20495;-69
2022/07/18 09:58:56;;;;;;;9.10;3.67;;;25.50;96.90;;;;;;5037341;28;20049;-69
2022/07/18 10:01:23;;;;;;;5.05;3.08;;;25.60;96.40;;;;;;5036554;28;20398;-69
2022/07/18 10:03:49;;;;;;;7.00;4.03;;;25.60;96.70;;;;;;5019690;28;20060;-69
2022/07/18 10:06:15;;;;;;;11.00;3.17;;;25.60;96.50;;;;;;5002365;28;20147;-68
2022/07/18 10:08:41;;;;;;;10.82;3.90;;;25.80;96.70;;;;;;5037088;28;20088;-67
2022/07/18 10:11:08;;;;;;;7.20;3.50;;;25.90;95.70;;;;;;5035931;28;20475;-70
2022/07/18 10:13:35;;;;;;;5.70;3.67;;;26.10;95.70;;;;;;5035454;28;20041;-69
2022/07/18 10:16:01;;;;;;;5.57;3.53;;;26.20;95.20;;;;;;5036897;28;20045;-68
2022/07/18 10:18:29;;;;;;;5.68;3.10;;;26.30;94.40;;;;;;5036844;28;20360;-69
2022/07/18 10:21:03;;;;;;;8.95;3.30;;;26.30;93.90;;;;;;5036980;28;20056;-67
2022/07/18 10:23:39;;;;;;;4.55;3.25;;;26.30;93.40;;;;;;5036711;28;20052;-70
2022/07/18 10:26:21;;;;;;;7.30;3.55;;;26.30;93.20;;;;;;5035772;28;20067;-68
2022/07/18 10:29:15;;;;;;;4.18;2.72;;;26.40;93.20;;;;;;5036502;28;20391;-68
2022/07/18 10:32:00;;;;;;;5.25;3.05;;;26.50;93.70;;;;;;5032673;28;20053;-69
2022/07/18 10:34:32;;;;;;;7.22;3.40;;;26.70;93.90;;;;;;5036276;28;20045;-69
2022/07/18 10:37:02;;;;;;;5.85;3.10;;;26.60;93.30;;;;;;5036604;28;20055;-69
2022/07/18 10:39:42;;;;;;;7.35;3.85;;;26.50;93.50;;;;;;5035630;28;20084;-69
2022/07/18 10:42:11;;;;;;;8.48;3.90;;;26.50;93.20;;;;;;5035071;28;20046;-68
2022/07/18 10:44:41;;;;;;;5.85;3.60;;;26.70;93.40;;;;;;5034393;28;20053;-69
2022/07/18 10:47:17;;;;;;;8.25;3.50;;;26.90;93.10;;;;;;5036014;28;20041;-68
2022/07/18 10:49:48;;;;;;;7.25;3.72;;;26.70;93.00;;;;;;5036442;28;20412;-68
2022/07/18 10:52:26;;;;;;;6.35;3.55;;;26.80;93.20;;;;;;5036303;28;20084;-70
2022/07/18 10:57:37;;;;;;;6.30;4.13;;;27.10;93.70;;;;;;5035466;28;20057;-69
2022/07/18 11:00:08;;;;;;;8.98;3.80;;;27.20;93.40;;;;;;5036033;28;20049;-68
2022/07/18 11:02:46;;;;;;;7.78;4.43;;;27.20;93.80;;;;;;5035815;28;20045;-70
2022/07/18 11:05:24;;;;;;;8.85;4.57;;;27.10;93.10;;;;;;5035989;28;20108;-67
2022/07/18 11:07:59;;;;;;;9.25;4.80;;;26.90;93.30;;;;;;5036243;28;20056;-68
2022/07/18 11:11:01;;;;;;;5.75;3.70;;;26.80;93.10;;;;;;5035918;28;20150;-69
2022/07/18 11:13:31;;;;;;;7.47;4.00;;;26.80;93.60;;;;;;5016985;28;20145;-68
2022/07/18 11:16:06;;;;;;;7.47;5.03;;;26.80;94.20;;;;;;5035559;28;20049;-69
2022/07/18 11:18:44;;;;;;;8.52;4.50;;;26.90;94.30;;;;;;5018033;28;20518;-68
2022/07/18 11:21:28;;;;;;;7.20;4.63;;;26.90;93.50;;;;;;5035809;28;20072;-69
2022/07/18 11:24:00;;;;;;;6.55;4.28;;;26.90;93.70;;;;;;5035840;28;20057;-70
2022/07/18 11:26:26;;;;;;;5.95;3.75;;;26.90;94.20;;;;;;5033570;28;20049;-68
2022/07/18 11:29:09;;;;;;;7.65;4.60;;;27.00;94.20;;;;;;5035819;28;20046;-69
2022/07/18 11:31:50;;;;;;;8.20;4.70;;;27.20;93.90;;;;;;5035431;28;20344;-68
2022/07/18 11:34:15;;;;;;;8.38;5.18;;;27.00;93.20;;;;;;5035584;28;20088;-68
2022/07/18 11:36:43;;;;;;;8.40;5.03;;;26.90;93.10;;;;;;5035589;28;20488;-70
2022/07/18 11:39:09;;;;;;;7.82;4.90;;;26.90;93.30;;;;;;5035598;28;20156;-68
2022/07/18 11:41:40;;;;;;;9.95;4.93;;;26.90;93.70;;;;;;5033833;28;20041;-68
2022/07/18 11:44:16;;;;;;;8.75;4.22;;;27.00;94.40;;;;;;5035148;28;20110;-68
2022/07/18 11:46:41;;;;;;;8.75;4.57;;;27.10;94.00;;;;;;5017072;28;20041;-67
2022/07/18 11:49:07;;;;;;;10.05;4.30;;;27.10;93.90;;;;;;5035503;28;20106;-68
2022/07/18 11:51:41;;;;;;;7.07;4.07;;;27.10;93.80;;;;;;5035300;28;20046;-70
2022/07/18 11:54:07;;;;;;;;;;;27.10;94.20;;;;;;5035672;28;20063;-70
2022/07/18 11:56:32;;;;;;;8.93;4.57;;;27.30;95.20;;;;;;5016634;28;19920;-69
2022/07/18 11:58:58;;;;;;;8.00;4.85;;;27.50;94.30;;;;;;5035283;28;20056;-70
2022/07/18 12:01:33;;;;;;;7.90;5.03;;;27.50;93.20;;;;;;5035229;28;20045;-70
2022/07/18 12:03:59;;;;;;;8.25;5.35;;;27.70;92.40;;;;;;5017611;28;20037;-70
2022/07/18 12:06:27;;;;;;;9.63;5.60;;;27.70;91.90;;;;;;5035260;28;20053;-68
2022/07/18 12:09:00;;;;;;;9.45;5.00;;;27.80;92.00;;;;;;5017300;28;20452;-68
2022/07/18 12:11:36;;;;;;;7.10;4.87;;;27.70;91.40;;;;;;5034126;28;20428;-67
2022/07/18 12:14:08;;;;;;;9.80;4.93;;;27.80;92.00;;;;;;5035081;28;20295;-70
2022/07/18 12:16:37;;;;;;;7.80;4.70;;;28.00;91.70;;;;;;5034877;28;20057;-69
2022/07/18 12:19:24;;;;;;;8.95;5.35;;;28.20;91.80;;;;;;5034907;28;20081;-68
2022/07/18 12:22:03;;;;;;;8.43;4.85;;;28.60;91.70;;;;;;5034567;28;20464;-70
2022/07/18 12:24:54;;;;;;;8.77;4.50;;;28.90;91.70;;;;;;5033981;28;20049;-69
2022/07/18 12:27:25;;;;;;;8.25;5.10;;;29.20;90.70;;;;;;5034718;28;20133;-70
2022/07/18 12:30:18;;;;;;;10.75;5.18;;;29.40;90.70;;;;;;5034721;28;20053;-70
2022/07/18 12:33:09;;;;;;;10.23;5.35;;;29.20;87.70;;;;;;5031375;28;20479;-70
2022/07/18 12:35:37;;;;;;;6.13;4.43;;;28.80;89.70;;;;;;5031090;28;20127;-67
2022/07/18 12:38:08;;;;;;;7.20;4.88;;;28.50;89.80;;;;;;5016567;28;20426;-68
2022/07/18 12:40:49;;;;;;;9.18;5.18;;;28.30;89.20;;;;;;5034579;28;20045;-68
2022/07/18 12:43:16;;;;;;;10.10;5.07;;;28.40;90.00;;;;;;5034662;28;20045;-68
2022/07/18 12:45:43;;;;;;;10.73;5.10;;;28.40;90.10;;;;;;5034965;28;20088;-68
2022/07/18 12:48:11;;;;;;;12.65;4.90;;;28.30;90.00;;;;;;5035423;28;20037;-67
2022/07/18 12:50:38;;;;;;;9.45;4.78;;;28.60;90.10;;;;;;5035341;28;20065;-69
2022/07/18 12:53:04;;;;;;;9.27;5.10;;;28.90;90.00;;;;;;5033758;28;20038;-68